createdAt,value
2022-08-05T00:01:49.551Z,101213.09
2022-08-05T00:04:18.540Z,101209.79
2022-08-05T00:06:51.705Z,101208.09
2022-08-05T00:09:22.028Z,101206.85
2022-08-05T00:11:56.117Z,101213.95
2022-08-05T00:14:31.355Z,101216.04
2022-08-05T00:17:01.907Z,101209.43
2022-08-05T00:19:45.524Z,101209.43
2022-08-05T00:22:33.047Z,101211.07
2022-08-05T00:25:03.665Z,101214.40
2022-08-05T00:27:42.826Z,101224.87
2022-08-05T00:30:16.398Z,101217.80
2022-08-05T00:32:44.176Z,101229.48
2022-08-05T00:35:23.828Z,101239.05
2022-08-05T00:38:11.340Z,101240.27
2022-08-05T00:40:53.672Z,101242.81
2022-08-05T00:43:24.610Z,101239.91
2022-08-05T00:46:02.010Z,101233.23
2022-08-05T00:48:33.281Z,101231.99
2022-08-05T00:51:51.194Z,101231.99
2022-08-05T00:54:19.805Z,101235.72
2022-08-05T00:56:51.633Z,101235.72
2022-08-05T00:59:25.465Z,101234.90
2022-08-05T01:02:05.235Z,101237.81
2022-08-05T01:04:42.151Z,101246.12
2022-08-05T01:07:14.652Z,101248.60
2022-08-05T01:09:55.552Z,101255.27
2022-08-05T01:12:23.752Z,101248.60
2022-08-05T01:15:18.703Z,101252.36
2022-08-05T01:18:01.023Z,101249.42
2022-08-05T01:20:47.679Z,101263.19
2022-08-05T01:23:25.778Z,101253.57
2022-08-05T01:26:21.239Z,101244.02
2022-08-05T01:28:56.737Z,101252.72
2022-08-05T01:31:44.518Z,101252.72
2022-08-05T01:34:32.223Z,101246.90
2022-08-05T01:37:24.387Z,101250.63
2022-08-05T01:39:58.933Z,101253.15
2022-08-05T01:42:35.367Z,101263.51
2022-08-05T01:45:08.480Z,101268.52
2022-08-05T01:47:39.578Z,101276.85
2022-08-05T01:50:17.307Z,101275.15
2022-08-05T01:52:52.438Z,101277.67
2022-08-05T01:55:24.426Z,101296.80
2022-08-05T01:58:12.461Z,101299.70
2022-08-05T02:00:55.709Z,101313.90
2022-08-05T02:03:36.434Z,101328.02
2022-08-05T02:06:33.587Z,101338.45
2022-08-05T02:08:59.044Z,101335.09
2022-08-05T02:11:47.048Z,101343.03
2022-08-05T02:14:22.771Z,101349.27
2022-08-05T02:16:58.107Z,101339.66
2022-08-05T02:19:34.575Z,101347.57
2022-08-05T02:22:25.493Z,101348.42
2022-08-05T02:24:57.781Z,101342.57
2022-08-05T02:27:58.281Z,101337.96
2022-08-05T02:30:30.994Z,101346.30
2022-08-05T02:33:01.220Z,101345.87
2022-08-05T02:35:33.306Z,101339.17
2022-08-05T02:38:11.148Z,101353.36
2022-08-05T02:40:46.927Z,101344.96
2022-08-05T02:43:17.858Z,101344.96
2022-08-05T02:45:52.129Z,101346.66
2022-08-05T02:48:22.041Z,101345.77
2022-08-05T02:51:00.895Z,101337.86
2022-08-05T02:53:35.895Z,101331.98
2022-08-05T02:56:15.784Z,101334.92
2022-08-05T02:58:52.565Z,101331.95
2022-08-05T03:01:22.199Z,101319.81
2022-08-05T03:04:02.733Z,101309.32
2022-08-05T03:06:53.763Z,101319.29
2022-08-05T03:09:37.554Z,101319.23
2022-08-05T03:12:07.870Z,101327.07
2022-08-05T03:14:45.737Z,101318.67
2022-08-05T03:17:23.587Z,101308.66
2022-08-05T03:19:58.508Z,101305.69
2022-08-05T03:22:32.129Z,101296.44
2022-08-05T03:25:11.787Z,101301.80
2022-08-05T03:27:59.225Z,101291.76
2022-08-05T03:30:33.622Z,101305.00
2022-08-05T03:33:07.967Z,101317.88
2022-08-05T03:35:41.225Z,101320.01
2022-08-05T03:38:12.620Z,101313.70
2022-08-05T03:40:47.533Z,101318.31
2022-08-05T03:44:10.016Z,101319.95
2022-08-05T03:46:15.461Z,101316.19
2022-08-05T03:48:54.204Z,101305.76
2022-08-05T03:52:37.935Z,101299.94
2022-08-05T03:55:50.559Z,101296.57
2022-08-05T03:57:29.102Z,101310.30
2022-08-05T04:00:16.686Z,101309.41
2022-08-05T04:02:57.737Z,101304.80
2022-08-05T04:05:33.566Z,101299.80
2022-08-05T04:08:34.747Z,101293.13
2022-08-05T04:11:10.012Z,101290.19
2022-08-05T04:13:50.992Z,101288.91
2022-08-05T04:16:24.235Z,101297.68
2022-08-05T04:18:58.260Z,101294.34
2022-08-05T04:22:08.358Z,101287.67
2022-08-05T04:24:22.478Z,101282.25
2022-08-05T04:26:51.177Z,101283.91
2022-08-05T04:29:19.034Z,101276.43
2022-08-05T04:31:48.531Z,101281.43
2022-08-05T04:34:33.363Z,101274.30
2022-08-05T04:37:06.866Z,101276.36
2022-08-05T04:39:35.741Z,101272.63
2022-08-05T04:42:06.794Z,101281.79
2022-08-05T04:44:34.577Z,101283.03
2022-08-05T04:47:09.138Z,101289.73
2022-08-05T04:50:02.152Z,101288.06
2022-08-05T04:52:34.539Z,101298.92
2022-08-05T04:55:13.772Z,101299.80
2022-08-05T04:57:48.007Z,101298.13
2022-08-05T05:00:24.615Z,101291.50
2022-08-05T05:02:56.573Z,101305.76
2022-08-05T05:05:28.755Z,101309.48
2022-08-05T05:08:01.602Z,101313.66
2022-08-05T05:10:55.776Z,101324.13
2022-08-05T05:13:24.366Z,101336.30
2022-08-05T05:16:01.911Z,101337.57
2022-08-05T05:18:38.960Z,101331.29
2022-08-05T05:21:06.926Z,101321.65
2022-08-05T05:23:39.028Z,101319.52
2022-08-05T05:26:28.880Z,101314.06
2022-08-05T05:29:14.293Z,101316.55
2022-08-05T05:31:42.999Z,101318.18
2022-08-05T05:34:14.176Z,101322.40
2022-08-05T05:36:43.866Z,101334.92
2022-08-05T05:39:19.134Z,101331.52
2022-08-05T05:41:54.282Z,101336.95
2022-08-05T05:44:36.923Z,101336.95
2022-08-05T05:47:13.260Z,101340.71
2022-08-05T05:49:56.593Z,101345.25
2022-08-05T05:52:37.895Z,101357.41
2022-08-05T05:55:13.125Z,101364.09
2022-08-05T05:57:51.994Z,101353.62
2022-08-05T06:00:21.161Z,101367.78
2022-08-05T06:02:55.594Z,101370.33
2022-08-05T06:05:23.737Z,101379.91
2022-08-05T06:07:58.048Z,101381.19
2022-08-05T06:10:34.470Z,101382.00
2022-08-05T06:13:05.010Z,101395.73
2022-08-05T06:16:29.448Z,101403.22
2022-08-05T06:18:31.073Z,101415.74
2022-08-05T06:20:59.304Z,101426.21
2022-08-05T06:23:27.113Z,101454.13
2022-08-05T06:26:13.600Z,101462.86
2022-08-05T06:28:56.639Z,101465.73
2022-08-05T06:31:30.458Z,101467.37
2022-08-05T06:34:07.530Z,101470.64
2022-08-05T06:36:57.238Z,101468.09
2022-08-05T06:39:35.014Z,101473.91
2022-08-05T06:42:08.046Z,101470.91
2022-08-05T06:44:35.930Z,101484.63
2022-08-05T06:47:13.377Z,101488.40
2022-08-05T06:50:00.211Z,101485.03
2022-08-05T06:52:40.360Z,101478.33
2022-08-05T06:55:11.592Z,101487.12
2022-08-05T06:58:03.108Z,101494.18
2022-08-05T07:00:38.295Z,101491.66
2022-08-05T07:03:14.030Z,101494.54
2022-08-05T07:05:44.581Z,101484.47
2022-08-05T07:08:19.922Z,101489.38
2022-08-05T07:10:55.546Z,101494.25
2022-08-05T07:13:57.946Z,101496.18
2022-08-05T07:18:02.279Z,101499.74
2022-08-05T07:22:34.609Z,101487.94
2022-08-05T07:25:23.376Z,101497.32
2022-08-05T07:27:58.017Z,101512.66
2022-08-05T07:30:38.995Z,101514.59
2022-08-05T07:33:15.921Z,101520.73
2022-08-05T07:36:02.437Z,101519.26
2022-08-05T07:38:43.150Z,101524.63
2022-08-05T07:42:08.235Z,101533.19
2022-08-05T07:44:14.258Z,101529.20
2022-08-05T07:46:48.383Z,101527.99
2022-08-05T07:49:22.313Z,101528.35
2022-08-05T07:51:54.532Z,101524.82
2022-08-05T07:54:31.112Z,101531.26
2022-08-05T07:57:22.580Z,101535.51
2022-08-05T07:59:48.982Z,101542.25
2022-08-05T08:02:21.189Z,101539.73
2022-08-05T08:04:55.038Z,101536.82
2022-08-05T08:07:23.640Z,101538.98
2022-08-05T08:09:57.765Z,101543.66
2022-08-05T08:12:49.227Z,101553.85
2022-08-05T08:16:35.877Z,101545.48
2022-08-05T08:18:14.341Z,101545.22
2022-08-05T08:21:02.242Z,101552.58
2022-08-05T08:24:03.054Z,101557.84
2022-08-05T08:26:26.716Z,101552.45
2022-08-05T08:29:21.780Z,101562.75
2022-08-05T08:31:52.232Z,101563.20
2022-08-05T08:34:30.557Z,101566.34
2022-08-05T08:37:09.378Z,101559.64
2022-08-05T08:39:49.673Z,101568.80
2022-08-05T08:42:34.584Z,101571.34
2022-08-05T08:45:18.096Z,101560.72
2022-08-05T08:48:12.805Z,101564.88
2022-08-05T08:51:03.978Z,101567.45
2022-08-05T08:53:45.112Z,101571.74
2022-08-05T08:56:15.755Z,101568.50
2022-08-05T08:58:53.151Z,101567.98
2022-08-05T09:01:27.018Z,101570.10
2022-08-05T09:03:58.602Z,101582.37
2022-08-05T09:06:30.683Z,101579.91
2022-08-05T09:09:09.575Z,101585.27
2022-08-05T09:11:50.983Z,101577.62
2022-08-05T09:14:56.937Z,101584.10
2022-08-05T09:17:42.860Z,101592.11
2022-08-05T09:20:08.702Z,101584.13
2022-08-05T09:23:07.518Z,101583.38
2022-08-05T09:25:59.785Z,101577.10
2022-08-05T09:28:36.030Z,101580.14
2022-08-05T09:31:44.095Z,101578.21
2022-08-05T09:34:05.163Z,101578.12
2022-08-05T09:36:54.323Z,101578.18
2022-08-05T09:39:41.880Z,101571.84
2022-08-05T09:42:23.532Z,101565.92
2022-08-05T09:46:04.774Z,101564.38
2022-08-05T09:48:00.490Z,101560.46
2022-08-05T09:50:44.866Z,101561.11
2022-08-05T09:53:23.140Z,101563.86
2022-08-05T09:56:12.647Z,101559.34
2022-08-05T09:58:42.022Z,101562.75
2022-08-05T10:01:22.487Z,101563.56
2022-08-05T10:04:13.577Z,101567.72
2022-08-05T10:07:01.662Z,101565.16
2022-08-05T10:10:14.499Z,101559.18
2022-08-05T10:12:57.232Z,101555.62
2022-08-05T10:15:34.143Z,101555.42
2022-08-05T10:18:18.950Z,101554.57
2022-08-05T10:21:06.295Z,101545.48
2022-08-05T10:23:59.924Z,101547.02
2022-08-05T10:26:32.614Z,101543.45
2022-08-05T10:29:08.811Z,101544.02
2022-08-05T10:32:54.346Z,101547.02
2022-08-05T10:34:34.914Z,101552.48
2022-08-05T10:37:07.215Z,101543.20
2022-08-05T10:39:59.417Z,101535.71
2022-08-05T10:42:34.065Z,101529.43
2022-08-05T10:45:02.353Z,101535.74
2022-08-05T10:48:31.062Z,101535.12
2022-08-05T10:51:22.519Z,101535.31
2022-08-05T10:54:05.896Z,101535.80
2022-08-05T10:56:57.928Z,101523.61
2022-08-05T11:00:04.398Z,101523.67
2022-08-05T11:02:34.558Z,101514.48
2022-08-05T11:05:08.694Z,101504.02
2022-08-05T11:08:01.111Z,101517.73
2022-08-05T11:10:29.996Z,101503.80
2022-08-05T11:12:58.591Z,101511.38
2022-08-05T11:15:58.894Z,101514.69
2022-08-05T11:18:38.022Z,101508.05
2022-08-05T11:21:48.773Z,101502.13
2022-08-05T11:24:30.826Z,101503.63
2022-08-05T11:27:37.060Z,101503.14
2022-08-05T11:30:20.360Z,101489.67
2022-08-05T11:32:48.263Z,101493.63
2022-08-05T11:36:04.419Z,101488.52
2022-08-05T11:38:51.892Z,101493.46
2022-08-05T11:41:56.377Z,101486.40
2022-08-05T11:44:53.103Z,101484.90
2022-08-05T11:47:19.937Z,101468.84
2022-08-05T11:49:55.286Z,101475.28
2022-08-05T11:52:31.203Z,101466.88
2022-08-05T11:55:07.639Z,101465.90
2022-08-05T11:58:10.833Z,101467.57
2022-08-05T12:00:38.115Z,101466.06
2022-08-05T12:03:29.681Z,101464.59
2022-08-05T12:06:10.149Z,101462.60
2022-08-05T12:08:55.510Z,101465.21
2022-08-05T12:11:40.621Z,101463.09
2022-08-05T12:14:15.095Z,101459.66
2022-08-05T12:16:50.704Z,101457.01
2022-08-05T12:20:17.235Z,101463.91
2022-08-05T12:22:10.308Z,101461.26
2022-08-05T12:24:49.599Z,101454.52
2022-08-05T12:27:53.216Z,101463.87
2022-08-05T12:30:32.180Z,101458.80
2022-08-05T12:33:27.943Z,101457.50
2022-08-05T12:36:16.307Z,101446.16
2022-08-05T12:38:44.498Z,101442.00
2022-08-05T12:41:18.549Z,101439.55
2022-08-05T12:43:59.023Z,101436.90
2022-08-05T12:46:29.369Z,101426.70
2022-08-05T12:49:13.923Z,101429.28
2022-08-05T12:52:13.080Z,101424.87
2022-08-05T12:54:43.229Z,101416.66
2022-08-05T12:57:13.176Z,101414.30
2022-08-05T13:01:58.320Z,101420.20
2022-08-05T13:02:50.997Z,101416.07
2022-08-05T13:05:37.482Z,101417.51
2022-08-05T13:08:06.541Z,101405.67
2022-08-05T13:10:48.790Z,101404.70
2022-08-05T13:14:06.514Z,101393.64
2022-08-05T13:16:16.765Z,101397.47
2022-08-05T13:18:58.627Z,101392.50
2022-08-05T13:21:27.702Z,101391.45
2022-08-05T13:23:56.758Z,101394.49
2022-08-05T13:26:29.811Z,101387.40
2022-08-05T13:28:58.995Z,101384.06
2022-08-05T13:31:33.929Z,101373.96
2022-08-05T13:34:24.286Z,101369.55
2022-08-05T13:36:54.319Z,101362.25
2022-08-05T13:40:13.176Z,101358.63
2022-08-05T13:42:16.259Z,101353.00
2022-08-05T13:44:47.300Z,101348.39
2022-08-05T13:47:36.005Z,101344.89
2022-08-05T13:50:12.475Z,101334.20
2022-08-05T13:52:44.189Z,101340.51
2022-08-05T13:55:41.041Z,101335.18
2022-08-05T13:58:15.141Z,101330.93
2022-08-05T14:01:01.087Z,101339.89
2022-08-05T14:03:30.302Z,101336.45
2022-08-05T14:06:26.349Z,101334.92
2022-08-05T14:08:56.015Z,101330.93
2022-08-05T14:11:32.309Z,101332.08
2022-08-05T14:14:32.293Z,101335.21
2022-08-05T14:17:05.606Z,101341.33
2022-08-05T14:19:55.209Z,101333.19
2022-08-05T14:22:30.112Z,101322.49
2022-08-05T14:25:01.500Z,101330.24
2022-08-05T14:27:47.362Z,101319.26
2022-08-05T14:30:20.621Z,101314.02
2022-08-05T14:32:54.798Z,101308.93
2022-08-05T14:35:50.487Z,101307.81
2022-08-05T14:38:33.186Z,101308.83
2022-08-05T14:41:07.446Z,101305.40
2022-08-05T14:43:53.904Z,101306.73
2022-08-05T14:46:30.826Z,101307.84
2022-08-05T14:49:06.297Z,101311.51
2022-08-05T14:51:37.673Z,101309.71
2022-08-05T14:54:27.465Z,101305.10
2022-08-05T14:57:05.171Z,101287.51
2022-08-05T14:59:43.134Z,101288.33
2022-08-05T15:02:15.781Z,101292.61
2022-08-05T15:05:00.905Z,101292.94
2022-08-05T15:08:08.938Z,101281.59
2022-08-05T15:10:35.611Z,101288.82
2022-08-05T15:13:10.115Z,101299.15
2022-08-05T15:15:55.076Z,101301.80
2022-08-05T15:18:29.383Z,101297.68
2022-08-05T15:21:07.455Z,101291.92
2022-08-05T15:23:38.382Z,101286.50
2022-08-05T15:26:16.682Z,101294.87
2022-08-05T15:29:02.482Z,101296.99
2022-08-05T15:31:35.769Z,101294.02
2022-08-05T15:34:31.369Z,101291.07
2022-08-05T15:36:54.841Z,101289.27
2022-08-05T15:41:02.956Z,101295.36
2022-08-05T15:42:54.731Z,101295.85
2022-08-05T15:45:06.513Z,101296.34
2022-08-05T15:47:35.708Z,101292.71
2022-08-05T15:50:04.072Z,101301.57
2022-08-05T15:52:54.558Z,101298.79
2022-08-05T15:56:02.241Z,101298.10
2022-08-05T15:58:17.641Z,101287.25
2022-08-05T16:00:57.038Z,101285.74
2022-08-05T16:03:43.421Z,101286.23
2022-08-05T16:06:14.213Z,101290.65
2022-08-05T16:08:53.801Z,101286.04
2022-08-05T16:11:40.095Z,101289.51
2022-08-05T16:14:17.048Z,101286.04
2022-08-05T16:16:46.025Z,101284.93
2022-08-05T16:19:25.278Z,101282.09
2022-08-05T16:22:03.594Z,101283.42
2022-08-05T16:24:41.668Z,101287.18
2022-08-05T16:27:19.040Z,101286.37
2022-08-05T16:29:51.241Z,101285.19
2022-08-05T16:32:28.737Z,101278.98
2022-08-05T16:35:01.080Z,101278.65
2022-08-05T16:38:16.827Z,101279.47
2022-08-05T16:40:29.229Z,101272.73
2022-08-05T16:43:00.491Z,101264.33
2022-08-05T16:46:06.566Z,101259.42
2022-08-05T16:48:33.552Z,101254.00
2022-08-05T16:51:13.690Z,101252.33
2022-08-05T16:54:05.727Z,101251.35
2022-08-05T16:56:32.413Z,101246.05
2022-08-05T16:59:03.143Z,101246.54
2022-08-05T17:01:53.256Z,101231.89
2022-08-05T17:04:26.478Z,101229.45
2022-08-05T17:06:56.959Z,101235.98
2022-08-05T17:09:38.772Z,101234.28
2022-08-05T17:12:22.670Z,101237.81
2022-08-05T17:15:09.939Z,101242.36
2022-08-05T17:17:54.524Z,101242.45
2022-08-05T17:20:26.591Z,101249.78
2022-08-05T17:22:55.275Z,101251.71
2022-08-05T17:25:39.434Z,101265.41
2022-08-05T17:28:09.337Z,101286.43
2022-08-05T17:30:50.424Z,101282.97
2022-08-05T17:33:20.306Z,101288.00
2022-08-05T17:36:07.717Z,101279.92
2022-08-05T17:38:42.521Z,101289.60
2022-08-05T17:41:22.983Z,101285.84
2022-08-05T17:44:01.903Z,101280.97
2022-08-05T17:46:32.690Z,101291.11
2022-08-05T17:49:01.147Z,101301.57
2022-08-05T17:51:29.107Z,101322.92
2022-08-05T17:54:13.331Z,101340.05
2022-08-05T17:56:51.193Z,101370.69
2022-08-05T17:59:21.002Z,101386.16
2022-08-05T18:01:50.677Z,101391.65
2022-08-05T18:04:27.231Z,101400.31
2022-08-05T18:07:01.858Z,101419.47
2022-08-05T18:10:00.032Z,101467.73
2022-08-05T18:12:24.111Z,101481.63
2022-08-05T18:14:55.988Z,101487.58
2022-08-05T18:17:59.194Z,101505.86
2022-08-05T18:20:19.693Z,101543.69
2022-08-05T18:22:57.785Z,101589.07
2022-08-05T18:25:33.170Z,101647.43
2022-08-05T18:28:01.682Z,101730.12
2022-08-05T18:30:35.475Z,101723.77
2022-08-05T18:33:07.577Z,101715.60
2022-08-05T18:35:59.770Z,101678.69
2022-08-05T18:38:31.756Z,101705.53
2022-08-05T18:42:00.720Z,101733.20
2022-08-05T18:43:48.739Z,101716.02
2022-08-05T18:46:20.672Z,101688.79
2022-08-05T18:48:52.773Z,101669.47
2022-08-05T18:52:04.970Z,101668.52
2022-08-05T18:54:36.163Z,101666.39
2022-08-05T18:57:10.755Z,101677.87
2022-08-05T19:00:02.478Z,101690.63
2022-08-05T19:02:37.351Z,101710.83
2022-08-05T19:06:05.512Z,101726.13
2022-08-05T19:08:00.998Z,101729.83
2022-08-05T19:10:34.909Z,101732.31
2022-08-05T19:13:05.584Z,101732.64
2022-08-05T19:15:57.333Z,101762.81
2022-08-05T19:18:30.234Z,101765.30
2022-08-05T19:21:06.759Z,101761.90
2022-08-05T19:24:07.124Z,101769.81
2022-08-05T19:26:23.535Z,101775.27
2022-08-05T19:28:53.221Z,101791.75
2022-08-05T19:31:21.541Z,101785.48
2022-08-05T19:33:58.666Z,101785.41
2022-08-05T19:36:27.093Z,101815.26
2022-08-05T19:39:00.866Z,101826.02
2022-08-05T19:41:58.107Z,101847.92
2022-08-05T19:44:23.836Z,101830.17
2022-08-05T19:46:59.877Z,101827.59
2022-08-05T19:49:27.834Z,101825.88
2022-08-05T19:52:13.326Z,101847.01
2022-08-05T19:54:44.285Z,101859.04
2022-08-05T19:57:13.075Z,101871.50
2022-08-05T19:59:55.935Z,101889.32
2022-08-05T20:02:31.662Z,101904.33
2022-08-05T20:05:04.913Z,101906.81
2022-08-05T20:07:47.820Z,101902.72
2022-08-05T20:10:16.756Z,101894.84
2022-08-05T20:12:49.229Z,101897.69
2022-08-05T20:15:23.129Z,101894.84
2022-08-05T20:18:10.304Z,101912.70
2022-08-05T20:20:56.908Z,101902.88
2022-08-05T20:23:40.569Z,101906.12
2022-08-05T20:26:25.730Z,101910.18
2022-08-05T20:28:55.729Z,101909.30
2022-08-05T20:31:37.611Z,101903.02
2022-08-05T20:34:18.337Z,101916.69
2022-08-05T20:36:47.849Z,101913.38
2022-08-05T20:39:16.609Z,101915.87
2022-08-05T20:41:45.447Z,101915.02
2022-08-05T20:44:28.737Z,101921.66
2022-08-05T20:47:03.202Z,101920.41
2022-08-05T20:49:39.476Z,101934.86
2022-08-05T20:52:07.848Z,101933.59
2022-08-05T20:54:43.142Z,101931.10
2022-08-05T20:57:43.700Z,101931.10
2022-08-05T21:00:40.709Z,101943.13
2022-08-05T21:03:06.889Z,101955.33
2022-08-05T21:05:48.067Z,101953.24
2022-08-05T21:08:26.515Z,101950.72
2022-08-05T21:11:10.324Z,101932.48
2022-08-05T21:13:48.150Z,101926.23
2022-08-05T21:16:29.978Z,101924.50
2022-08-05T21:19:02.001Z,101906.65
2022-08-05T21:21:39.305Z,101897.16
2022-08-05T21:24:08.588Z,101893.86
2022-08-05T21:26:41.443Z,101896.34
2022-08-05T21:29:16.799Z,101906.32
2022-08-05T21:31:46.054Z,101932.94
2022-08-05T21:34:13.872Z,101941.77
2022-08-05T21:36:42.310Z,101942.58
2022-08-05T21:39:14.399Z,101936.47
2022-08-05T21:41:52.876Z,101913.22
2022-08-05T21:44:29.186Z,101909.85
2022-08-05T21:46:58.195Z,101915.28
2022-08-05T21:49:48.136Z,101920.31
2022-08-05T21:52:21.487Z,101918.19
2022-08-05T21:54:55.463Z,101918.19
2022-08-05T21:57:31.988Z,101927.77
2022-08-05T22:00:05.356Z,101934.41
2022-08-05T22:02:35.077Z,101936.79
2022-08-05T22:05:04.627Z,101943.37
2022-08-05T22:07:54.584Z,101939.70
2022-08-05T22:10:26.818Z,101954.19
2022-08-05T22:12:57.297Z,101955.76
2022-08-05T22:16:01.704Z,101957.03
2022-08-05T22:18:16.184Z,101961.55
2022-08-05T22:20:47.460Z,101967.82
2022-08-05T22:24:02.095Z,101962.00
2022-08-05T22:26:49.617Z,101957.36
2022-08-05T22:29:18.867Z,101956.15
2022-08-05T22:31:55.215Z,101950.36
2022-08-05T22:34:28.534Z,101956.97
2022-08-05T22:37:03.710Z,101957.75
2022-08-05T22:39:33.937Z,101958.60
2022-08-05T22:42:10.314Z,101968.05
2022-08-05T22:44:56.634Z,101968.90
2022-08-05T22:47:29.464Z,101968.12
2022-08-05T22:50:19.393Z,101964.03
2022-08-05T22:52:52.438Z,101964.45
2022-08-05T22:55:21.162Z,101974.39
2022-08-05T22:57:50.843Z,101985.97
2022-08-05T23:00:20.818Z,101983.91
2022-08-05T23:02:53.031Z,101970.70
2022-08-05T23:05:21.966Z,101952.91
2022-08-05T23:07:54.750Z,101949.94
2022-08-05T23:10:23.966Z,101960.76
2022-08-05T23:12:54.218Z,101973.67
2022-08-05T23:15:29.124Z,101974.13
2022-08-05T23:18:03.377Z,101981.59
2022-08-05T23:20:37.786Z,101992.80
2022-08-05T23:23:08.160Z,101989.20
2022-08-05T23:25:52.860Z,102000.98
2022-08-05T23:28:24.140Z,101993.55
2022-08-05T23:31:17.429Z,101991.88
2022-08-05T23:34:03.735Z,101987.73
2022-08-05T23:36:38.656Z,101985.64
2022-08-05T23:39:07.760Z,101987.63
2022-08-05T23:41:37.398Z,101993.03
2022-08-05T23:44:09.081Z,101991.07
2022-08-05T23:46:37.591Z,101974.78
2022-08-05T23:49:16.019Z,101972.66
2022-08-05T23:52:05.696Z,101963.93
2022-08-05T23:54:38.329Z,101956.38
2022-08-05T23:57:09.818Z,101969.16
